createdAt,value
2018-05-09T00:04:20.841Z,3.63
2018-05-09T00:09:15.178Z,3.33
2018-05-09T00:14:09.547Z,2.50
2018-05-09T00:19:03.688Z,2.57
2018-05-09T00:23:58.069Z,2.67
2018-05-09T00:28:52.438Z,3.10
2018-05-09T00:33:46.780Z,2.63
2018-05-09T00:38:41.152Z,2.53
2018-05-09T00:43:35.523Z,2.53
2018-05-09T00:48:29.904Z,2.40
2018-05-09T00:53:25.024Z,2.70
2018-05-09T00:58:20.433Z,2.37
2018-05-09T01:03:15.014Z,2.70
2018-05-09T01:08:09.364Z,2.60
2018-05-09T01:13:03.738Z,2.70
2018-05-09T01:17:58.123Z,2.80
2018-05-09T01:22:52.486Z,2.83
2018-05-09T01:27:47.624Z,2.73
2018-05-09T01:32:42.163Z,2.90
2018-05-09T01:37:36.669Z,2.97
2018-05-09T01:42:30.999Z,3.30
2018-05-09T01:47:25.366Z,3.17
2018-05-09T01:52:19.918Z,3.30
2018-05-09T01:57:15.413Z,3.30
2018-05-09T02:02:09.770Z,3.47
2018-05-09T02:07:04.122Z,3.40
2018-05-09T02:11:58.547Z,3.17
2018-05-09T02:16:53.462Z,3.07
2018-05-09T02:21:48.022Z,3.37
2018-05-09T02:26:42.406Z,3.53
2018-05-09T02:31:36.934Z,2.80
2018-05-09T02:36:31.325Z,2.83
2018-05-09T02:41:25.697Z,3.00
2018-05-09T02:46:20.883Z,2.97
2018-05-09T02:51:15.256Z,3.10
2018-05-09T02:56:09.667Z,3.07
2018-05-09T03:01:04.020Z,3.10
2018-05-09T03:05:59.153Z,3.30
2018-05-09T03:10:54.278Z,3.07
2018-05-09T03:15:49.430Z,3.10
2018-05-09T03:20:43.773Z,3.47
2018-05-09T03:25:38.204Z,3.23
2018-05-09T03:30:33.362Z,3.50
2018-05-09T03:35:27.753Z,3.50
2018-05-09T03:40:22.090Z,3.33
2018-05-09T03:45:16.622Z,3.30
2018-05-09T03:50:11.772Z,3.20
2018-05-09T03:55:05.862Z,3.20
2018-05-09T04:00:00.326Z,3.60
2018-05-09T04:05:11.878Z,3.30
2018-05-09T04:10:06.385Z,3.50
2018-05-09T04:15:00.784Z,4.17
2018-05-09T04:19:55.132Z,3.70
2018-05-09T04:24:49.496Z,3.77
2018-05-09T04:29:43.900Z,3.83
2018-05-09T04:34:38.255Z,3.80
2018-05-09T04:39:32.614Z,3.50
2018-05-09T04:44:27.265Z,3.87
2018-05-09T04:49:21.637Z,4.30
2018-05-09T04:54:16.145Z,4.00
2018-05-09T04:59:10.482Z,4.00
2018-05-09T05:04:04.835Z,3.53
2018-05-09T05:08:59.190Z,3.90
2018-05-09T05:13:54.323Z,4.33
2018-05-09T05:18:49.472Z,3.83
2018-05-09T05:23:43.824Z,4.10
2018-05-09T05:28:38.206Z,3.83
2018-05-09T05:33:32.572Z,3.90
2018-05-09T05:38:27.284Z,3.97
2018-05-09T05:43:21.704Z,5.13
2018-05-09T05:48:16.086Z,3.97
2018-05-09T05:53:10.576Z,3.90
2018-05-09T05:58:05.696Z,3.47
2018-05-09T06:03:00.890Z,3.67
2018-05-09T06:07:55.624Z,3.47
2018-05-09T06:12:50.587Z,3.50
2018-05-09T06:17:45.766Z,3.67
2018-05-09T06:22:40.594Z,3.70
2018-05-09T06:27:35.429Z,3.40
2018-05-09T06:32:30.818Z,3.60
2018-05-09T06:37:25.193Z,3.73
2018-05-09T06:42:19.996Z,3.43
2018-05-09T06:47:14.635Z,3.03
2018-05-09T06:52:09.245Z,3.50
2018-05-09T06:57:04.013Z,3.27
2018-05-09T07:01:58.653Z,3.23
2018-05-09T07:06:53.406Z,3.10
2018-05-09T07:11:48.341Z,2.70
2018-05-09T07:16:43.727Z,2.93
2018-05-09T07:21:38.373Z,2.83
2018-05-09T07:26:33.533Z,2.80
2018-05-09T07:31:28.145Z,2.60
2018-05-09T07:36:22.775Z,2.87
2018-05-09T07:41:17.415Z,3.10
2018-05-09T07:46:12.813Z,3.00
2018-05-09T07:51:07.728Z,2.73
2018-05-09T07:56:02.366Z,3.00
2018-05-09T08:00:57.739Z,2.70
2018-05-09T08:05:52.435Z,3.10
2018-05-09T08:10:47.082Z,3.23
2018-05-09T08:15:42.506Z,2.90
2018-05-09T08:20:37.176Z,2.87
2018-05-09T08:25:32.077Z,3.27
2018-05-09T08:30:26.688Z,3.00
2018-05-09T08:35:21.450Z,2.93
2018-05-09T08:40:16.400Z,3.20
2018-05-09T08:45:11.774Z,3.17
2018-05-09T08:50:06.611Z,2.83
2018-05-09T08:55:02.169Z,2.57
2018-05-09T08:59:57.573Z,2.90
2018-05-09T09:04:52.187Z,3.20
2018-05-09T09:09:46.815Z,2.60
2018-05-09T09:14:42.295Z,3.13
2018-05-09T09:19:36.692Z,3.07
2018-05-09T09:24:31.357Z,2.87
2018-05-09T09:29:26.829Z,3.27
2018-05-09T09:34:21.444Z,2.80
2018-05-09T09:39:16.071Z,3.23
2018-05-09T09:44:11.327Z,2.83
2018-05-09T09:49:06.719Z,3.23
2018-05-09T09:54:01.666Z,3.20
2018-05-09T09:58:57.120Z,3.40
2018-05-09T10:03:51.982Z,3.53
2018-05-09T10:08:46.616Z,3.73
2018-05-09T10:13:42.033Z,3.80
2018-05-09T10:18:37.557Z,3.23
2018-05-09T10:23:32.958Z,3.40
2018-05-09T10:28:27.594Z,3.80
2018-05-09T10:33:22.131Z,2.90
2018-05-09T10:38:16.492Z,3.07
2018-05-09T10:43:10.941Z,3.90
2018-05-09T10:48:05.443Z,3.30
2018-05-09T10:52:59.833Z,3.70
2018-05-09T10:57:54.280Z,2.93
2018-05-09T11:02:50.202Z,3.10
2018-05-09T11:07:44.666Z,3.60
2018-05-09T11:12:39.119Z,3.70
2018-05-09T11:17:33.540Z,2.87
2018-05-09T11:22:28.203Z,4.00
2018-05-09T11:27:22.699Z,3.30
2018-05-09T11:32:17.115Z,2.90
2018-05-09T11:37:11.655Z,3.00
2018-05-09T11:42:06.988Z,3.10
2018-05-09T11:47:02.106Z,2.90
2018-05-09T11:51:57.246Z,3.03
2018-05-09T11:56:52.375Z,2.90
2018-05-09T12:01:47.249Z,3.30
2018-05-09T12:06:41.666Z,3.10
2018-05-09T12:11:36.967Z,3.27
2018-05-09T12:16:31.499Z,3.23
2018-05-09T12:21:26.087Z,2.87
2018-05-09T12:26:21.215Z,3.10
2018-05-09T12:31:15.568Z,3.07
2018-05-09T12:36:09.986Z,2.90
2018-05-09T12:41:04.490Z,3.10
2018-05-09T12:45:58.840Z,3.00
2018-05-09T12:50:54.291Z,3.10
2018-05-09T12:55:48.650Z,2.93
2018-05-09T13:00:43.095Z,3.30
2018-05-09T13:05:37.704Z,3.30
2018-05-09T13:10:32.285Z,2.90
2018-05-09T13:15:27.056Z,3.10
2018-05-09T13:20:21.386Z,2.70
2018-05-09T13:25:15.736Z,2.93
2018-05-09T13:30:10.374Z,3.30
2018-05-09T13:35:04.433Z,3.07
2018-05-09T13:39:58.790Z,3.07
2018-05-09T13:44:53.327Z,3.23
2018-05-09T13:49:48.663Z,2.90
2018-05-09T13:54:43.764Z,2.70
2018-05-09T13:59:39.029Z,2.90
2018-05-09T14:04:33.566Z,3.27
2018-05-09T14:09:28.273Z,3.10
2018-05-09T14:14:22.896Z,3.50
2018-05-09T14:19:17.634Z,3.17
2018-05-09T14:24:12.932Z,3.30
2018-05-09T14:29:07.515Z,3.10
2018-05-09T14:34:01.856Z,3.47
2018-05-09T14:38:56.968Z,3.10
2018-05-09T14:43:52.083Z,3.30
2018-05-09T14:48:46.441Z,3.50
2018-05-09T14:53:40.795Z,3.33
2018-05-09T14:58:35.944Z,3.80
2018-05-09T15:03:30.296Z,3.50
2018-05-09T15:08:24.676Z,3.10
2018-05-09T15:13:19.051Z,3.10
2018-05-09T15:18:13.403Z,3.53
2018-05-09T15:23:07.756Z,3.50
2018-05-09T15:28:02.110Z,3.23
2018-05-09T15:32:56.515Z,3.13
2018-05-09T15:37:51.772Z,3.43
2018-05-09T15:42:46.893Z,3.23
2018-05-09T15:47:42.074Z,3.47
2018-05-09T15:52:36.575Z,3.60
2018-05-09T15:57:30.929Z,2.97
2018-05-09T16:02:26.235Z,3.47
2018-05-09T16:07:21.352Z,3.33
2018-05-09T16:12:16.661Z,3.27
2018-05-09T16:17:11.034Z,3.40
2018-05-09T16:22:05.926Z,3.83
2018-05-09T16:27:00.377Z,3.07
2018-05-09T16:31:54.732Z,2.90
2018-05-09T16:36:49.112Z,3.00
2018-05-09T16:41:44.364Z,3.60
2018-05-09T16:46:38.794Z,3.60
2018-05-09T16:51:33.309Z,3.70
2018-05-09T16:56:27.859Z,3.20
2018-05-09T17:01:23.033Z,3.17
2018-05-09T17:06:17.523Z,3.70
2018-05-09T17:11:12.440Z,3.97
2018-05-09T17:16:06.984Z,3.40
2018-05-09T17:21:01.349Z,3.13
2018-05-09T17:25:55.962Z,3.13
2018-05-09T17:30:50.325Z,4.13
2018-05-09T17:35:45.442Z,3.27
2018-05-09T17:40:40.646Z,3.50
2018-05-09T17:45:35.041Z,4.00
2018-05-09T17:50:29.551Z,6.10
2018-05-09T17:55:24.706Z,3.73
2018-05-09T18:00:21.298Z,3.30
2018-05-09T18:05:15.965Z,3.70
2018-05-09T18:10:12.263Z,3.83
2018-05-09T18:15:06.786Z,3.70
2018-05-09T18:20:02.361Z,4.00
2018-05-09T18:24:56.727Z,3.70
2018-05-09T18:29:51.256Z,5.27
2018-05-09T18:34:46.039Z,4.10
2018-05-09T18:39:40.389Z,3.97
2018-05-09T18:44:35.131Z,4.73
2018-05-09T18:49:29.763Z,4.90
2018-05-09T18:54:24.306Z,5.27
2018-05-09T18:59:19.826Z,4.80
2018-05-09T19:04:14.729Z,4.80
2018-05-09T19:09:09.341Z,5.07
2018-05-09T19:14:03.814Z,5.90
2018-05-09T19:18:58.333Z,5.60
2018-05-09T19:23:53.183Z,6.03
2018-05-09T19:28:47.690Z,5.33
2018-05-09T19:33:42.395Z,5.50
2018-05-09T19:38:38.623Z,5.40
2018-05-09T19:43:33.219Z,5.90
2018-05-09T19:48:27.450Z,6.47
2018-05-09T19:53:24.076Z,6.83
2018-05-09T19:58:18.402Z,6.80
2018-05-09T20:03:12.547Z,7.60
2018-05-09T20:08:07.050Z,7.13
2018-05-09T20:13:01.414Z,7.10
2018-05-09T20:17:55.850Z,6.80
2018-05-09T20:22:50.378Z,6.57
2018-05-09T20:27:44.830Z,6.60
2018-05-09T20:32:40.832Z,7.90
2018-05-09T20:37:35.452Z,7.10
2018-05-09T20:42:30.200Z,6.93
2018-05-09T20:47:25.348Z,6.87
2018-05-09T20:52:19.739Z,6.30
2018-05-09T20:57:14.895Z,5.80
2018-05-09T21:02:09.371Z,5.73
2018-05-09T21:07:04.504Z,8.20
2018-05-09T21:12:09.968Z,10.30
2018-05-09T21:17:04.423Z,12.50
2018-05-09T21:21:59.113Z,16.03
2018-05-09T21:26:53.516Z,16.73
2018-05-09T21:31:48.316Z,17.93
2018-05-09T21:36:42.681Z,19.47
2018-05-09T21:41:37.810Z,18.97
2018-05-09T21:46:32.498Z,20.00
2018-05-09T21:51:27.767Z,18.30
2018-05-09T21:56:22.120Z,18.90
2018-05-09T22:01:16.413Z,18.53
2018-05-09T22:06:11.273Z,19.10
2018-05-09T22:11:05.834Z,20.07
2018-05-09T22:16:00.847Z,19.07
2018-05-09T22:20:55.195Z,19.50
2018-05-09T22:25:49.568Z,18.90
2018-05-09T22:30:43.931Z,19.37
2018-05-09T22:35:38.276Z,19.53
2018-05-09T22:40:32.467Z,18.80
2018-05-09T22:45:27.681Z,18.37
2018-05-09T22:50:22.804Z,18.97
2018-05-09T22:55:17.165Z,17.93
2018-05-09T23:00:11.438Z,18.00
2018-05-09T23:05:05.929Z,15.93
2018-05-09T23:10:00.354Z,16.43
2018-05-09T23:14:54.708Z,19.23
2018-05-09T23:19:50.869Z,18.40
2018-05-09T23:24:45.006Z,20.17
2018-05-09T23:29:39.524Z,21.57
2018-05-09T23:34:34.057Z,19.80
2018-05-09T23:39:28.606Z,21.13
2018-05-09T23:44:23.103Z,20.60
2018-05-09T23:49:18.270Z,19.97
2018-05-09T23:54:12.648Z,18.17
2018-05-09T23:59:07.042Z,17.63
